Time;durP1;ratioP1;P1;durP2;ratioP2;P2;SDS_P1;SDS_P2;PMS_P1;PMS_P2;Temp;Humidity;BMP_temperature;BMP_pressure;BME280_temperature;BME280_humidity;BME280_pressure;Samples;Min_cycle;Max_cycle;Signal;HPM_P1;HPM_P2
2021/10/25 00:00:51;;;;;;;1.23;0.50;;;;;;;;;;7331332;19;162042;-13
2021/10/25 00:03:22;;;;;;;0.30;0.30;;;;;;;;;;7332501;19;162643;-17
2021/10/25 00:05:56;;;;;;;0.30;0.30;;;;;;;;;;7331406;19;154240;-15
2021/10/25 00:08:27;;;;;;;0.50;0.50;;;;;;;;;;7332577;19;153715;-14
2021/10/25 00:10:58;;;;;;;0.40;0.40;;;;;;;;;;7327696;19;162270;-15
2021/10/25 00:13:30;;;;;;;0.50;0.50;;;;;;;;;;7331331;19;162419;-13
2021/10/25 00:16:01;;;;;;;0.40;0.40;;;;;;;;;;7332616;19;154389;-14
2021/10/25 08:50:45;;;;;;;1.65;0.73;;;;;;;;;;7371612;19;132692;-12
2021/10/25 08:53:19;;;;;;;0.73;0.60;;;;;;;;;;7364626;19;154257;-14
2021/10/25 08:55:55;;;;;;;0.50;0.50;;;;;;;;;;7366291;19;161795;-12
2021/10/25 08:58:40;;;;;;;1.25;0.50;;;;;;;;;;7364717;19;162763;-13
2021/10/25 09:01:12;;;;;;;0.50;0.50;;;;;;;;;;7365913;19;154240;-13
2021/10/25 09:04:07;;;;;;;0.50;0.50;;;;;;;;;;7366142;19;153480;-15
2021/10/25 09:06:54;;;;;;;0.50;0.50;;;;;;;;;;7365909;19;161879;-12
2021/10/25 09:09:29;;;;;;;0.80;0.63;;;;;;;;;;7365046;19;162507;-15
2021/10/25 09:12:06;;;;;;;0.50;0.50;;;;;;;;;;7365948;19;153992;-13
2021/10/25 09:15:01;;;;;;;0.50;0.50;;;;;;;;;;7367177;19;155608;-15
2021/10/25 09:17:43;;;;;;;1.75;0.60;;;;;;;;;;7365170;19;162112;-14
2021/10/25 09:20:25;;;;;;;0.50;0.50;;;;;;;;;;7363408;19;162479;-15
2021/10/25 09:23:10;;;;;;;1.45;0.60;;;;;;;;;;7368012;19;154127;-16
2021/10/25 09:25:45;;;;;;;0.40;0.40;;;;;;;;;;7365803;19;153721;-13
2021/10/25 09:28:20;;;;;;;0.77;0.60;;;;;;;;;;7365223;19;161929;-16
2021/10/25 09:30:54;;;;;;;1.35;0.50;;;;;;;;;;7363454;19;162459;-15
2021/10/25 09:33:33;;;;;;;0.50;0.50;;;;;;;;;;7366546;19;153915;-14
2021/10/25 09:36:14;;;;;;;1.27;0.65;;;;;;;;;;7366715;19;153570;-13
2021/10/25 09:39:03;;;;;;;1.00;0.50;;;;;;;;;;7365586;19;162225;-14
2021/10/25 09:41:56;;;;;;;0.60;0.60;;;;;;;;;;7365199;19;162398;-14
2021/10/25 09:50:23;;;;;;;1.05;0.68;;;;;;;;;;7350709;19;162181;-12
2021/10/25 09:52:59;;;;;;;0.85;0.60;;;;;;;;;;7333954;19;162401;-13
2021/10/25 09:55:33;;;;;;;;;;;;;;;;;;7336563;19;154149;-12
2021/10/25 09:58:15;;;;;;;0.60;0.40;;;;;;;;;;7338018;19;153379;-16
2021/10/25 10:00:56;;;;;;;0.50;0.50;;;;;;;;;;7333536;19;162243;-13
2021/10/25 10:03:29;;;;;;;0.50;0.50;;;;;;;;;;7336214;19;162362;-13
2021/10/25 10:06:04;;;;;;;1.27;0.70;;;;;;;;;;7337027;19;153967;-15
2021/10/25 10:08:40;;;;;;;0.60;0.52;;;;;;;;;;7335706;19;153556;-13
2021/10/25 10:11:22;;;;;;;0.50;0.50;;;;;;;;;;7335962;19;162119;-14
2021/10/25 10:13:53;;;;;;;0.52;0.50;;;;;;;;;;7334660;19;162976;-14
2021/10/25 10:16:39;;;;;;;1.65;0.50;;;;;;;;;;7335810;19;154575;-14
2021/10/25 10:19:14;;;;;;;0.50;0.40;;;;;;;;;;7334326;19;153815;-16
2021/10/25 10:22:08;;;;;;;1.08;0.60;;;;;;;;;;7333966;19;163427;-14
2021/10/25 10:25:07;;;;;;;0.90;0.63;;;;;;;;;;7335651;19;162904;-15
2021/10/25 10:27:43;;;;;;;0.65;0.65;;;;;;;;;;7335396;19;154108;-15
2021/10/25 10:30:15;;;;;;;0.77;0.50;;;;;;;;;;7336053;19;153680;-14
2021/10/25 10:33:01;;;;;;;0.50;0.50;;;;;;;;;;7335337;19;162048;-12
2021/10/25 10:35:42;;;;;;;1.75;0.65;;;;;;;;;;7334041;19;162615;-12
2021/10/25 10:38:17;;;;;;;0.75;0.55;;;;;;;;;;7336421;19;153993;-15
2021/10/25 10:41:11;;;;;;;0.57;0.50;;;;;;;;;;7333232;19;153580;-14
2021/10/25 10:44:07;;;;;;;0.60;0.60;;;;;;;;;;7334693;19;162132;-12
2021/10/25 10:46:50;;;;;;;0.88;0.60;;;;;;;;;;7335987;19;162452;-16
2021/10/25 10:49:31;;;;;;;0.50;0.50;;;;;;;;;;7331668;19;154033;-15
2021/10/25 10:52:32;;;;;;;1.42;0.60;;;;;;;;;;7332849;19;153511;-13
2021/10/25 10:55:09;;;;;;;0.77;0.60;;;;;;;;;;7334633;19;161972;-14
2021/10/25 10:58:11;;;;;;;0.30;0.30;;;;;;;;;;7335494;19;162729;-14
2021/10/25 11:00:48;;;;;;;0.50;0.50;;;;;;;;;;7331075;19;153924;-15
2021/10/25 11:03:23;;;;;;;0.50;0.50;;;;;;;;;;7332641;19;153921;-13
2021/10/25 11:05:56;;;;;;;0.65;0.65;;;;;;;;;;7334199;19;162045;-14
2021/10/25 11:08:31;;;;;;;;;;;;;;;;;;7334467;19;164468;-13
2021/10/25 11:11:06;;;;;;;0.50;0.50;;;;;;;;;;7336131;19;154428;-14
2021/10/25 11:13:45;;;;;;;0.75;0.75;;;;;;;;;;7333044;19;153701;-16
2021/10/25 11:16:24;;;;;;;0.80;0.50;;;;;;;;;;7335194;19;161761;-12
2021/10/25 11:19:00;;;;;;;2.17;0.85;;;;;;;;;;7330112;19;162384;-16
2021/10/25 11:21:33;;;;;;;0.65;0.65;;;;;;;;;;7329649;19;153954;-14
2021/10/25 11:24:08;;;;;;;1.83;0.70;;;;;;;;;;7330558;19;153556;-13
2021/10/25 11:26:42;;;;;;;0.63;0.63;;;;;;;;;;7335908;19;161814;-15
2021/10/25 11:29:18;;;;;;;1.58;0.70;;;;;;;;;;7331591;19;162470;-15
2021/10/25 11:31:55;;;;;;;1.17;0.73;;;;;;;;;;7330780;19;154064;-13
2021/10/25 11:34:29;;;;;;;0.50;0.50;;;;;;;;;;7331821;19;153522;-13
2021/10/25 11:37:04;;;;;;;1.17;0.68;;;;;;;;;;7331520;19;161945;-17
2021/10/25 11:39:40;;;;;;;0.68;0.57;;;;;;;;;;7332660;19;162350;-16
2021/10/25 11:42:12;;;;;;;0.90;0.60;;;;;;;;;;7334725;19;153890;-16
2021/10/25 11:44:45;;;;;;;0.60;0.60;;;;;;;;;;7331673;19;153798;-13
2021/10/25 11:47:23;;;;;;;;;;;;;;;;;;7330609;19;162091;-16
2021/10/25 11:49:56;;;;;;;0.57;0.57;;;;;;;;;;7333429;19;162577;-13
2021/10/25 11:52:27;;;;;;;1.40;0.70;;;;;;;;;;7333454;19;153943;-15
2021/10/25 11:55:01;;;;;;;1.77;0.60;;;;;;;;;;7334014;19;153788;-14
2021/10/25 11:57:32;;;;;;;1.30;0.77;;;;;;;;;;7330770;19;161874;-23
2021/10/25 12:00:10;;;;;;;0.50;0.50;;;;;;;;;;7333082;19;162393;-15
2021/10/25 12:02:51;;;;;;;0.60;0.60;;;;;;;;;;7329834;19;154609;-12
2021/10/25 12:05:24;;;;;;;1.17;0.60;;;;;;;;;;7334128;19;153594;-13
2021/10/25 12:07:57;;;;;;;1.17;0.70;;;;;;;;;;7330776;19;161792;-13
2021/10/25 12:10:31;;;;;;;1.27;0.60;;;;;;;;;;7330232;19;162446;-17
2021/10/25 12:13:06;;;;;;;0.52;0.50;;;;;;;;;;7328846;19;154029;-16
2021/10/25 12:15:39;;;;;;;0.63;0.57;;;;;;;;;;7330589;19;153539;-17
2021/10/25 12:18:19;;;;;;;1.20;0.60;;;;;;;;;;7330231;19;161834;-16
2021/10/25 12:20:51;;;;;;;0.57;0.57;;;;;;;;;;7331715;19;162682;-14
2021/10/25 12:23:26;;;;;;;0.68;0.52;;;;;;;;;;7326629;19;153920;-15
2021/10/25 12:25:59;;;;;;;0.55;0.55;;;;;;;;;;7329960;19;153560;-11
2021/10/25 12:28:31;;;;;;;0.55;0.55;;;;;;;;;;7329523;19;162057;-14
2021/10/25 12:31:09;;;;;;;0.60;0.60;;;;;;;;;;7331831;19;162489;-16
2021/10/25 12:33:45;;;;;;;0.60;0.60;;;;;;;;;;7331648;19;153941;-14
2021/10/25 12:36:20;;;;;;;0.70;0.70;;;;;;;;;;7329458;19;153501;-16
2021/10/25 12:38:55;;;;;;;0.63;0.57;;;;;;;;;;7329371;19;161960;-17
2021/10/25 12:41:26;;;;;;;0.70;0.70;;;;;;;;;;7328146;19;162458;-14
2021/10/25 12:44:02;;;;;;;0.90;0.70;;;;;;;;;;7330506;19;153917;-12
2021/10/25 12:46:34;;;;;;;1.35;0.60;;;;;;;;;;7328517;19;153851;-11
2021/10/25 12:49:08;;;;;;;1.80;0.80;;;;;;;;;;7328234;19;161993;-15
2021/10/25 12:51:44;;;;;;;0.90;0.80;;;;;;;;;;7328906;19;162448;-17
2021/10/25 12:54:17;;;;;;;0.93;0.60;;;;;;;;;;7331886;19;153942;-14
2021/10/25 12:56:48;;;;;;;1.30;0.90;;;;;;;;;;7332633;19;153492;-15
2021/10/25 12:59:21;;;;;;;2.38;1.10;;;;;;;;;;7331138;19;161934;-17
2021/10/25 13:01:57;;;;;;;2.85;1.00;;;;;;;;;;7331138;19;162465;-14
2021/10/25 13:04:35;;;;;;;0.82;0.77;;;;;;;;;;7329010;19;154382;-16
2021/10/25 13:07:14;;;;;;;1.20;1.10;;;;;;;;;;7328547;19;153851;-14
2021/10/25 13:09:50;;;;;;;0.85;0.85;;;;;;;;;;7328519;19;161902;-17
2021/10/25 13:12:22;;;;;;;1.27;0.77;;;;;;;;;;7330135;19;162315;-12
2021/10/25 13:14:55;;;;;;;0.70;0.70;;;;;;;;;;7331994;19;154072;-15
2021/10/25 13:17:36;;;;;;;1.40;0.82;;;;;;;;;;7328848;19;153739;-15
2021/10/25 13:20:13;;;;;;;1.50;0.68;;;;;;;;;;7328248;19;161802;-15
2021/10/25 13:22:44;;;;;;;0.65;0.65;;;;;;;;;;7326161;19;162500;-12
2021/10/25 13:25:16;;;;;;;0.80;0.75;;;;;;;;;;7330108;19;153997;-14
2021/10/25 13:27:48;;;;;;;1.00;0.80;;;;;;;;;;7335451;19;153439;-13
2021/10/25 13:30:20;;;;;;;;;;;;;;;;;;7339585;19;161638;-11
2021/10/25 13:32:54;;;;;;;1.02;0.80;;;;;;;;;;7335923;19;162592;-15
2021/10/25 13:35:30;;;;;;;0.98;0.70;;;;;;;;;;7339107;19;154830;-13
2021/10/25 13:38:09;;;;;;;1.45;0.80;;;;;;;;;;7336535;19;153488;-13
2021/10/25 13:40:45;;;;;;;;;;;;;;;;;;7333995;19;161956;-17
2021/10/25 13:43:39;;;;;;;0.85;0.70;;;;;;;;;;7332061;19;163295;-14
2021/10/25 13:46:17;;;;;;;1.75;0.80;;;;;;;;;;7334940;19;154212;-14
2021/10/25 13:48:54;;;;;;;1.10;0.90;;;;;;;;;;7333553;19;153527;-15
2021/10/25 13:51:28;;;;;;;0.70;0.70;;;;;;;;;;7334425;19;161928;-15
2021/10/25 13:54:00;;;;;;;0.80;0.80;;;;;;;;;;7334834;19;162647;-13
2021/10/25 13:56:31;;;;;;;1.92;0.90;;;;;;;;;;7334623;19;154108;-15
2021/10/25 13:59:02;;;;;;;0.80;0.70;;;;;;;;;;7334579;19;153661;-16
2021/10/25 14:01:34;;;;;;;0.60;0.60;;;;;;;;;;7332633;19;161940;-14
2021/10/25 14:04:07;;;;;;;0.77;0.77;;;;;;;;;;7333848;19;162467;-16
2021/10/25 14:06:42;;;;;;;0.60;0.60;;;;;;;;;;7336458;19;154073;-12
2021/10/25 14:09:14;;;;;;;0.68;0.60;;;;;;;;;;7336490;19;153739;-13
2021/10/25 14:11:49;;;;;;;0.80;0.80;;;;;;;;;;7333692;19;161706;-15
2021/10/25 14:14:24;;;;;;;1.15;0.75;;;;;;;;;;7333604;19;163030;-12
2021/10/25 14:16:56;;;;;;;1.48;0.63;;;;;;;;;;7333949;19;154281;-14
2021/10/25 14:19:28;;;;;;;1.13;0.63;;;;;;;;;;7332926;19;153557;-12
2021/10/25 14:22:04;;;;;;;0.82;0.60;;;;;;;;;;7332953;19;161985;-14
2021/10/25 14:24:35;;;;;;;0.60;0.60;;;;;;;;;;7333382;19;162363;-11
2021/10/25 14:27:07;;;;;;;0.65;0.60;;;;;;;;;;7333699;19;154179;-13
2021/10/25 14:29:38;;;;;;;0.40;0.40;;;;;;;;;;7333565;19;153605;-15
2021/10/25 14:32:10;;;;;;;0.70;0.70;;;;;;;;;;7333136;19;161623;-13
2021/10/25 14:34:41;;;;;;;0.50;0.50;;;;;;;;;;7332925;19;162731;-13
2021/10/25 14:37:16;;;;;;;0.82;0.50;;;;;;;;;;7333010;19;153967;-12
2021/10/25 14:39:48;;;;;;;0.43;0.43;;;;;;;;;;7333310;19;153608;-13
2021/10/25 14:42:23;;;;;;;0.47;0.47;;;;;;;;;;7332271;19;161778;-13
2021/10/25 14:44:58;;;;;;;0.88;0.57;;;;;;;;;;7332903;19;162476;-17
2021/10/25 14:47:50;;;;;;;0.50;0.50;;;;;;;;;;7333029;19;154090;-15
2021/10/25 14:56:02;;;;;;;0.60;0.60;;;;;;;;;;7332307;19;162423;-15
2021/10/25 14:58:34;;;;;;;0.60;0.60;;;;;;;;;;7332818;19;153997;-14
2021/10/25 15:01:06;;;;;;;0.50;0.50;;;;;;;;;;7332707;19;153546;-12
2021/10/25 15:03:40;;;;;;;0.65;0.65;;;;;;;;;;7329308;19;162298;-11
2021/10/25 15:06:12;;;;;;;0.43;0.43;;;;;;;;;;7330992;19;162505;-13
2021/10/25 15:08:47;;;;;;;0.60;0.55;;;;;;;;;;7332774;19;154066;-15
2021/10/25 15:11:18;;;;;;;0.50;0.50;;;;;;;;;;7332536;19;153473;-16
2021/10/25 15:13:50;;;;;;;1.52;0.80;;;;;;;;;;7332131;19;162027;-15
2021/10/25 15:16:22;;;;;;;0.40;0.40;;;;;;;;;;7331855;19;162552;-18
2021/10/25 15:18:54;;;;;;;1.17;0.60;;;;;;;;;;7331965;19;154045;-12
2021/10/25 15:21:26;;;;;;;0.60;0.60;;;;;;;;;;7332121;19;153567;-14
2021/10/25 15:24:03;;;;;;;0.68;0.50;;;;;;;;;;7333075;19;162073;-15
2021/10/25 15:26:37;;;;;;;0.50;0.50;;;;;;;;;;7335110;19;162351;-16
2021/10/25 15:29:08;;;;;;;0.52;0.52;;;;;;;;;;7334561;19;153917;-13
2021/10/25 15:31:39;;;;;;;0.50;0.50;;;;;;;;;;7334982;19;153527;-19
2021/10/25 15:34:11;;;;;;;0.40;0.40;;;;;;;;;;7334603;19;161798;-15
2021/10/25 15:36:43;;;;;;;0.50;0.50;;;;;;;;;;7334542;19;162146;-14
2021/10/25 15:39:17;;;;;;;0.60;0.57;;;;;;;;;;7331494;19;154029;-13
2021/10/25 15:41:48;;;;;;;0.50;0.50;;;;;;;;;;7334314;19;153511;-15
2021/10/25 15:44:20;;;;;;;0.60;0.57;;;;;;;;;;7332487;19;162056;-13
2021/10/25 15:46:51;;;;;;;0.47;0.47;;;;;;;;;;7333639;19;162367;-13
2021/10/25 15:49:22;;;;;;;0.65;0.50;;;;;;;;;;7330806;19;153967;-65
2021/10/25 15:51:53;;;;;;;0.55;0.50;;;;;;;;;;7333923;19;153678;-13
2021/10/25 15:54:27;;;;;;;0.50;0.50;;;;;;;;;;7334089;19;162153;-15
2021/10/25 15:56:58;;;;;;;0.45;0.45;;;;;;;;;;7333999;19;162614;-15
2021/10/25 15:59:30;;;;;;;0.40;0.40;;;;;;;;;;7334248;19;154029;-13
2021/10/25 16:02:05;;;;;;;0.25;0.25;;;;;;;;;;7334086;19;153576;-13
2021/10/25 16:04:37;;;;;;;0.50;0.50;;;;;;;;;;7331324;19;161988;-15
2021/10/25 16:07:10;;;;;;;0.50;0.50;;;;;;;;;;7333786;19;162601;-14
2021/10/25 16:09:45;;;;;;;0.40;0.40;;;;;;;;;;7333828;19;154174;-14
2021/10/25 16:12:18;;;;;;;0.75;0.60;;;;;;;;;;7333648;19;153546;-13
2021/10/25 16:14:49;;;;;;;;;;;;;;;;;;7332515;19;161953;-13
2021/10/25 16:17:20;;;;;;;0.50;0.50;;;;;;;;;;7332778;19;163258;-18
2021/10/25 16:19:54;;;;;;;0.50;0.50;;;;;;;;;;7330691;19;154129;-13
2021/10/25 16:22:26;;;;;;;0.40;0.40;;;;;;;;;;7330439;19;153688;-26
2021/10/25 16:25:00;;;;;;;0.67;0.63;;;;;;;;;;7327852;19;161993;-13
2021/10/25 16:27:31;;;;;;;0.50;0.50;;;;;;;;;;7329737;19;162281;-13
2021/10/25 16:30:03;;;;;;;0.50;0.50;;;;;;;;;;7328901;19;154161;-14
2021/10/25 16:32:36;;;;;;;0.38;0.38;;;;;;;;;;7329743;19;153671;-13
2021/10/25 16:35:09;;;;;;;0.38;0.38;;;;;;;;;;7329597;19;161899;-22
2021/10/25 16:37:41;;;;;;;0.60;0.50;;;;;;;;;;7329605;19;162631;-15
2021/10/25 16:40:16;;;;;;;0.50;0.50;;;;;;;;;;7332458;19;154175;-25
2021/10/25 16:42:47;;;;;;;0.40;0.40;;;;;;;;;;7333310;19;154198;-15
2021/10/25 16:45:18;;;;;;;0.30;0.30;;;;;;;;;;7330000;19;162011;-14
2021/10/25 16:47:50;;;;;;;0.85;0.63;;;;;;;;;;7332619;19;162482;-12
2021/10/25 16:50:21;;;;;;;0.47;0.47;;;;;;;;;;7329188;19;154233;-12
2021/10/25 16:52:56;;;;;;;0.43;0.43;;;;;;;;;;7333448;19;153545;-15
2021/10/25 16:55:39;;;;;;;0.60;0.60;;;;;;;;;;7328772;19;161993;-15
2021/10/25 17:06:41;;;;;;;0.40;0.40;;;;;;;;;;7335098;19;161978;-14
2021/10/25 17:09:16;;;;;;;0.50;0.50;;;;;;;;;;7334320;19;162805;-14
2021/10/25 17:11:51;;;;;;;0.60;0.60;;;;;;;;;;7335939;19;153997;-13
2021/10/25 17:14:23;;;;;;;0.60;0.60;;;;;;;;;;7335775;19;153473;-13
2021/10/25 17:16:54;;;;;;;0.50;0.50;;;;;;;;;;7335407;19;161803;-15
2021/10/25 17:19:26;;;;;;;0.50;0.50;;;;;;;;;;7334844;19;162727;-14
2021/10/25 17:21:58;;;;;;;0.47;0.47;;;;;;;;;;7335331;19;154147;-14
2021/10/25 17:24:30;;;;;;;0.60;0.60;;;;;;;;;;7334546;19;153775;-14
2021/10/25 17:27:04;;;;;;;0.85;0.65;;;;;;;;;;7333648;19;162175;-15
2021/10/25 17:29:35;;;;;;;0.50;0.50;;;;;;;;;;7334875;19;162516;-16
2021/10/25 17:32:07;;;;;;;0.43;0.40;;;;;;;;;;7334698;19;153959;-13
2021/10/25 17:34:38;;;;;;;0.40;0.40;;;;;;;;;;7334675;19;153525;-17
2021/10/25 17:37:09;;;;;;;0.50;0.50;;;;;;;;;;7334315;19;161956;-15
2021/10/25 17:39:40;;;;;;;0.73;0.60;;;;;;;;;;7334131;19;162432;-16
2021/10/25 17:42:17;;;;;;;0.65;0.60;;;;;;;;;;7334674;19;153966;-16
2021/10/25 17:44:49;;;;;;;0.70;0.50;;;;;;;;;;7333650;19;153632;-14
2021/10/25 17:47:21;;;;;;;0.47;0.47;;;;;;;;;;7334201;19;161722;-16
2021/10/25 17:49:54;;;;;;;0.80;0.55;;;;;;;;;;7332658;19;162579;-14
2021/10/25 17:52:27;;;;;;;0.40;0.40;;;;;;;;;;7334363;19;153952;-16
2021/10/25 17:54:59;;;;;;;0.60;0.50;;;;;;;;;;7334022;19;153945;-17
2021/10/25 17:57:35;;;;;;;0.40;0.40;;;;;;;;;;7337525;19;161844;-15
2021/10/25 18:00:07;;;;;;;0.40;0.40;;;;;;;;;;7333399;19;162269;-14
2021/10/25 18:02:42;;;;;;;0.63;0.40;;;;;;;;;;7337462;19;154582;-15
2021/10/25 18:05:17;;;;;;;0.40;0.40;;;;;;;;;;7336437;19;153687;-16
2021/10/25 18:07:50;;;;;;;0.40;0.40;;;;;;;;;;7336670;19;162042;-14
2021/10/25 18:10:21;;;;;;;;;;;;;;;;;;7337307;19;162612;-14
2021/10/25 18:12:55;;;;;;;0.43;0.43;;;;;;;;;;7335568;19;154259;-17
2021/10/25 18:15:26;;;;;;;0.50;0.50;;;;;;;;;;7336946;19;153478;-14
2021/10/25 18:17:59;;;;;;;0.40;0.40;;;;;;;;;;7332926;19;161850;-17
2021/10/25 18:20:30;;;;;;;0.50;0.47;;;;;;;;;;7331710;19;162381;-14
2021/10/25 18:23:03;;;;;;;0.45;0.45;;;;;;;;;;7333300;19;154303;-15
2021/10/25 18:25:36;;;;;;;0.55;0.55;;;;;;;;;;7333075;19;153679;-17
2021/10/25 18:28:10;;;;;;;0.40;0.40;;;;;;;;;;7335365;19;161782;-15
2021/10/25 18:30:42;;;;;;;0.32;0.32;;;;;;;;;;7334424;19;162405;-15
2021/10/25 18:33:14;;;;;;;0.38;0.38;;;;;;;;;;7336371;19;153999;-14
2021/10/25 18:35:45;;;;;;;0.45;0.45;;;;;;;;;;7334521;19;153813;-15
2021/10/25 18:38:16;;;;;;;0.70;0.70;;;;;;;;;;7335708;19;161905;-16
2021/10/25 18:40:49;;;;;;;0.60;0.60;;;;;;;;;;7335766;19;162362;-15
2021/10/25 18:43:25;;;;;;;0.50;0.50;;;;;;;;;;7335419;19;154137;-15
2021/10/25 18:45:56;;;;;;;0.40;0.40;;;;;;;;;;7334518;19;153542;-15
2021/10/25 18:48:28;;;;;;;0.50;0.50;;;;;;;;;;7335520;19;161873;-13
2021/10/25 18:51:00;;;;;;;0.50;0.50;;;;;;;;;;7335564;19;162697;-14
2021/10/25 18:53:32;;;;;;;0.35;0.35;;;;;;;;;;7335315;19;153941;-15
2021/10/25 18:56:05;;;;;;;0.40;0.40;;;;;;;;;;7335401;19;153637;-15
2021/10/25 18:58:38;;;;;;;0.55;0.55;;;;;;;;;;7335161;19;161947;-12
2021/10/25 19:01:10;;;;;;;0.40;0.40;;;;;;;;;;7335465;19;162353;-13
2021/10/25 19:03:41;;;;;;;0.90;0.60;;;;;;;;;;7334078;19;154014;-14
2021/10/25 19:06:13;;;;;;;0.50;0.50;;;;;;;;;;7332822;19;153513;-17
2021/10/25 19:08:44;;;;;;;0.40;0.40;;;;;;;;;;7330472;19;161893;-15
2021/10/25 19:11:16;;;;;;;0.50;0.50;;;;;;;;;;7330590;19;162583;-17
2021/10/25 19:14:02;;;;;;;0.67;0.57;;;;;;;;;;7331979;19;154113;-14
2021/10/25 19:16:34;;;;;;;0.40;0.40;;;;;;;;;;7331869;19;153481;-15
2021/10/25 19:19:07;;;;;;;0.50;0.50;;;;;;;;;;7331316;19;162093;-15
2021/10/25 19:21:40;;;;;;;0.45;0.45;;;;;;;;;;7331488;19;163046;-17
2021/10/25 19:24:11;;;;;;;0.35;0.35;;;;;;;;;;7329190;19;154091;-15
2021/10/25 19:26:44;;;;;;;0.43;0.43;;;;;;;;;;7332880;19;153518;-16
2021/10/25 19:29:18;;;;;;;0.50;0.50;;;;;;;;;;7334755;19;161925;-17
2021/10/25 19:31:51;;;;;;;0.40;0.40;;;;;;;;;;7334540;19;162473;-16
2021/10/25 19:34:23;;;;;;;0.50;0.50;;;;;;;;;;7335079;19;153935;-14
2021/10/25 19:36:54;;;;;;;0.50;0.50;;;;;;;;;;7330405;19;153689;-13
2021/10/25 19:39:26;;;;;;;0.50;0.50;;;;;;;;;;7331191;19;161798;-14
2021/10/25 19:41:59;;;;;;;0.50;0.50;;;;;;;;;;7331173;19;162443;-16
2021/10/25 19:44:33;;;;;;;0.40;0.40;;;;;;;;;;7331273;19;154043;-13
2021/10/25 19:47:06;;;;;;;0.30;0.30;;;;;;;;;;7329212;19;153535;-13
2021/10/25 19:49:37;;;;;;;0.60;0.60;;;;;;;;;;7329228;19;161755;-14
2021/10/25 19:52:09;;;;;;;0.60;0.60;;;;;;;;;;7328710;19;162380;-15
2021/10/25 19:54:41;;;;;;;0.60;0.60;;;;;;;;;;7334138;19;153954;-13
2021/10/25 19:57:14;;;;;;;0.60;0.60;;;;;;;;;;7330446;19;153302;-14
2021/10/25 19:59:48;;;;;;;2.05;0.80;;;;;;;;;;7328939;19;161894;-16
2021/10/25 20:02:19;;;;;;;0.60;0.60;;;;;;;;;;7328318;19;162285;-17
2021/10/25 20:04:51;;;;;;;1.50;0.70;;;;;;;;;;7330482;19;154095;-15
2021/10/25 20:07:22;;;;;;;1.55;1.45;;;;;;;;;;7328495;19;153547;-13
2021/10/25 20:09:53;;;;;;;1.00;0.90;;;;;;;;;;7330173;19;162020;-14
2021/10/25 20:12:25;;;;;;;0.82;0.80;;;;;;;;;;7329397;19;162666;-14
2021/10/25 20:14:59;;;;;;;1.25;1.15;;;;;;;;;;7330095;19;154045;-16
2021/10/25 20:17:31;;;;;;;0.90;0.90;;;;;;;;;;7329993;19;153546;-14
2021/10/25 20:20:02;;;;;;;0.70;0.70;;;;;;;;;;7329602;19;161918;-17
2021/10/25 20:22:34;;;;;;;1.10;1.00;;;;;;;;;;7329499;19;162371;-16
2021/10/25 20:25:05;;;;;;;1.30;1.20;;;;;;;;;;7328060;19;154788;-14
2021/10/25 20:27:37;;;;;;;0.90;0.90;;;;;;;;;;7325994;19;153503;-17
2021/10/25 20:30:13;;;;;;;1.20;1.10;;;;;;;;;;7330179;19;161913;-14
2021/10/25 20:32:44;;;;;;;1.40;1.00;;;;;;;;;;7328989;19;162544;-14
2021/10/25 20:35:15;;;;;;;1.25;1.02;;;;;;;;;;7328637;19;153953;-14
2021/10/25 20:37:47;;;;;;;1.50;0.90;;;;;;;;;;7326528;19;153903;-16
2021/10/25 20:40:18;;;;;;;2.00;1.00;;;;;;;;;;7328692;19;161823;-12
2021/10/25 20:42:49;;;;;;;1.23;1.10;;;;;;;;;;7328843;19;162532;-14
2021/10/25 20:45:24;;;;;;;1.02;0.90;;;;;;;;;;7327998;19;154115;-15
2021/10/25 20:47:56;;;;;;;2.03;0.93;;;;;;;;;;7326540;19;153492;-16
2021/10/25 20:50:28;;;;;;;1.02;1.00;;;;;;;;;;7324813;19;161874;-14
2021/10/25 20:52:59;;;;;;;1.13;1.08;;;;;;;;;;7330600;19;162496;-13
2021/10/25 20:55:31;;;;;;;1.23;1.10;;;;;;;;;;7332951;19;154285;-13
2021/10/25 20:58:02;;;;;;;1.63;0.80;;;;;;;;;;7328544;19;153710;-16
2021/10/25 21:00:37;;;;;;;0.90;0.90;;;;;;;;;;7327083;19;161994;-16
2021/10/25 21:03:09;;;;;;;1.83;1.17;;;;;;;;;;7328063;19;162511;-16
2021/10/25 21:05:43;;;;;;;2.00;1.10;;;;;;;;;;7327949;19;153993;-15
2021/10/25 21:08:14;;;;;;;0.95;0.95;;;;;;;;;;7329565;19;153533;-16
2021/10/25 21:10:45;;;;;;;1.00;1.00;;;;;;;;;;7327663;19;161698;-16
2021/10/25 21:13:17;;;;;;;1.42;1.10;;;;;;;;;;7327495;19;162673;-14
2021/10/25 21:15:51;;;;;;;1.25;1.05;;;;;;;;;;7328181;19;153998;-14
2021/10/25 21:18:22;;;;;;;0.90;0.90;;;;;;;;;;7327774;19;153293;-17
2021/10/25 21:20:54;;;;;;;1.10;1.00;;;;;;;;;;7327574;19;161955;-13
2021/10/25 21:23:25;;;;;;;0.82;0.82;;;;;;;;;;7327713;19;162604;-14
2021/10/25 21:25:57;;;;;;;1.90;0.88;;;;;;;;;;7331535;19;154262;-14
2021/10/25 21:28:28;;;;;;;1.50;0.80;;;;;;;;;;7325413;19;153528;-17
2021/10/25 21:31:02;;;;;;;1.20;1.10;;;;;;;;;;7327137;19;162092;-14
2021/10/25 21:33:34;;;;;;;2.97;0.90;;;;;;;;;;7327020;19;162397;-17
2021/10/25 21:36:05;;;;;;;1.00;0.90;;;;;;;;;;7327208;19;154117;-14
2021/10/25 21:38:37;;;;;;;0.77;0.77;;;;;;;;;;7325981;19;153664;-14
2021/10/25 21:41:09;;;;;;;0.98;0.98;;;;;;;;;;7327069;19;161946;-15
2021/10/25 21:43:40;;;;;;;0.93;0.93;;;;;;;;;;7325998;19;162352;-13
2021/10/25 21:46:14;;;;;;;1.23;0.80;;;;;;;;;;7328800;19;153984;-16
2021/10/25 21:48:46;;;;;;;0.70;0.70;;;;;;;;;;7332233;19;153518;-17
2021/10/25 21:51:17;;;;;;;0.85;0.82;;;;;;;;;;7333997;19;161830;-15
2021/10/25 21:53:49;;;;;;;0.70;0.70;;;;;;;;;;7334047;19;162596;-15
2021/10/25 21:56:20;;;;;;;1.08;0.80;;;;;;;;;;7334523;19;153978;-17
2021/10/25 21:58:56;;;;;;;0.80;0.80;;;;;;;;;;7334450;19;153563;-15
2021/10/25 22:01:30;;;;;;;0.80;0.80;;;;;;;;;;7334043;19;161830;-13
2021/10/25 22:04:02;;;;;;;1.67;1.02;;;;;;;;;;7335357;19;162767;-14
2021/10/25 22:06:33;;;;;;;0.80;0.80;;;;;;;;;;7337179;19;154001;-13
2021/10/25 22:09:04;;;;;;;0.77;0.77;;;;;;;;;;7331664;19;153807;-15
2021/10/25 22:11:48;;;;;;;2.65;0.80;;;;;;;;;;7333672;19;161951;-16
2021/10/25 22:14:19;;;;;;;2.35;1.10;;;;;;;;;;7332426;19;162438;-16
2021/10/25 22:16:53;;;;;;;0.80;0.80;;;;;;;;;;7336721;19;154071;-17
2021/10/25 22:19:24;;;;;;;1.08;0.77;;;;;;;;;;7333275;19;153757;-13
2021/10/25 22:21:56;;;;;;;0.88;0.70;;;;;;;;;;7332627;19;162579;-14
2021/10/25 22:24:27;;;;;;;0.80;0.80;;;;;;;;;;7332403;19;162446;-13
2021/10/25 22:26:58;;;;;;;1.23;0.70;;;;;;;;;;7335634;19;154263;-14
2021/10/25 22:29:30;;;;;;;1.08;0.85;;;;;;;;;;7333337;19;153881;-13
2021/10/25 22:32:04;;;;;;;0.75;0.75;;;;;;;;;;7332865;19;162072;-16
2021/10/25 22:34:35;;;;;;;0.77;0.77;;;;;;;;;;7329243;19;162468;-15
2021/10/25 22:37:06;;;;;;;0.73;0.73;;;;;;;;;;7332630;19;153992;-15
2021/10/25 22:39:38;;;;;;;0.85;0.85;;;;;;;;;;7331586;19;155297;-14
2021/10/25 22:42:09;;;;;;;1.20;0.90;;;;;;;;;;7331474;19;161988;-14
2021/10/25 22:44:41;;;;;;;0.80;0.80;;;;;;;;;;7336289;19;162698;-14
2021/10/25 22:47:14;;;;;;;0.90;0.90;;;;;;;;;;7332876;19;153954;-15
2021/10/25 22:49:46;;;;;;;0.82;0.80;;;;;;;;;;7329810;19;153482;-16
2021/10/25 22:52:19;;;;;;;1.10;0.85;;;;;;;;;;7331745;19;161894;-16
2021/10/25 22:54:51;;;;;;;0.80;0.80;;;;;;;;;;7331792;19;162532;-13
2021/10/25 22:57:22;;;;;;;0.80;0.80;;;;;;;;;;7333218;19;154515;-15
2021/10/25 22:59:54;;;;;;;1.55;0.93;;;;;;;;;;7334263;19;153552;-15
2021/10/25 23:02:28;;;;;;;0.60;0.60;;;;;;;;;;7335695;19;162084;-16
2021/10/25 23:04:59;;;;;;;0.70;0.70;;;;;;;;;;7334775;19;162611;-13
2021/10/25 23:07:31;;;;;;;0.70;0.70;;;;;;;;;;7334954;19;154120;-16
2021/10/25 23:10:02;;;;;;;0.55;0.55;;;;;;;;;;7333466;19;153679;-14
2021/10/25 23:12:33;;;;;;;0.75;0.75;;;;;;;;;;7332458;19;161976;-14
2021/10/25 23:15:05;;;;;;;0.80;0.80;;;;;;;;;;7331436;19;162593;-17
2021/10/25 23:17:41;;;;;;;0.70;0.70;;;;;;;;;;7336507;19;153950;-15
2021/10/25 23:20:13;;;;;;;0.63;0.63;;;;;;;;;;7333472;19;153784;-15
2021/10/25 23:22:45;;;;;;;0.98;0.88;;;;;;;;;;7333229;19;161813;-14
2021/10/25 23:25:16;;;;;;;0.70;0.70;;;;;;;;;;7334783;19;162631;-17
2021/10/25 23:27:47;;;;;;;0.70;0.70;;;;;;;;;;7334535;19;154070;-15
2021/10/25 23:30:18;;;;;;;0.80;0.80;;;;;;;;;;7330192;19;153564;-16
2021/10/25 23:32:52;;;;;;;1.95;0.80;;;;;;;;;;7332481;19;162229;-15
2021/10/25 23:35:24;;;;;;;1.23;0.73;;;;;;;;;;7332574;19;162589;-15
2021/10/25 23:37:55;;;;;;;0.70;0.70;;;;;;;;;;7333548;19;154081;-15
